createdAt,value
2018-06-24T00:00:33.224Z,5.40
2018-06-24T00:03:01.704Z,6.70
2018-06-24T00:05:30.168Z,5.33
2018-06-24T00:07:58.656Z,6.30
2018-06-24T00:10:27.086Z,6.83
2018-06-24T00:12:55.555Z,6.27
2018-06-24T00:15:24.037Z,6.20
2018-06-24T00:17:52.549Z,6.87
2018-06-24T00:20:21.037Z,6.63
2018-06-24T00:22:49.478Z,5.50
2018-06-24T00:25:17.990Z,6.47
2018-06-24T00:27:46.442Z,5.93
2018-06-24T00:30:14.986Z,5.80
2018-06-24T00:32:43.451Z,6.40
2018-06-24T00:35:12.076Z,5.90
2018-06-24T00:37:40.531Z,6.20
2018-06-24T00:40:08.980Z,6.17
2018-06-24T00:42:37.495Z,7.40
2018-06-24T00:45:05.985Z,5.73
2018-06-24T00:47:34.465Z,5.77
2018-06-24T00:50:02.996Z,7.27
2018-06-24T00:52:31.273Z,4.70
2018-06-24T00:54:59.430Z,5.73
2018-06-24T00:57:27.893Z,5.33
2018-06-24T01:00:11.381Z,5.33
2018-06-24T01:02:40.551Z,6.60
2018-06-24T01:05:08.986Z,6.77
2018-06-24T01:07:37.441Z,5.43
2018-06-24T01:10:05.990Z,5.53
2018-06-24T01:12:34.495Z,5.50
2018-06-24T01:15:03.066Z,6.33
2018-06-24T01:17:31.668Z,5.83
2018-06-24T01:20:01.770Z,5.70
2018-06-24T01:22:30.210Z,6.07
2018-06-24T01:24:58.678Z,6.60
2018-06-24T01:27:27.217Z,7.07
2018-06-24T01:29:55.741Z,7.13
2018-06-24T01:32:24.546Z,9.03
2018-06-24T01:34:53.313Z,6.50
2018-06-24T01:37:21.872Z,6.97
2018-06-24T01:39:50.325Z,6.03
2018-06-24T01:42:18.782Z,7.10
2018-06-24T01:44:47.270Z,7.00
2018-06-24T01:47:15.813Z,7.07
2018-06-24T01:49:44.364Z,7.37
2018-06-24T01:52:12.834Z,6.70
2018-06-24T01:54:41.309Z,7.00
2018-06-24T01:57:09.783Z,6.80
2018-06-24T01:59:38.233Z,7.57
2018-06-24T02:02:06.696Z,7.60
2018-06-24T02:04:35.179Z,6.83
2018-06-24T02:07:03.655Z,7.27
2018-06-24T02:09:31.837Z,7.40
2018-06-24T02:12:00.315Z,5.97
2018-06-24T02:14:28.497Z,6.80
2018-06-24T02:16:56.941Z,7.40
2018-06-24T02:19:25.422Z,6.70
2018-06-24T02:21:53.952Z,7.00
2018-06-24T02:24:22.427Z,5.80
2018-06-24T02:26:50.592Z,6.00
2018-06-24T02:29:19.043Z,7.13
2018-06-24T02:31:47.531Z,7.70
2018-06-24T02:34:16.096Z,7.17
2018-06-24T02:36:44.542Z,6.90
2018-06-24T02:39:13.027Z,7.70
2018-06-24T02:41:41.483Z,8.70
2018-06-24T02:44:10.021Z,7.50
2018-06-24T02:46:38.539Z,7.60
2018-06-24T02:49:07.102Z,8.50
2018-06-24T02:51:35.547Z,7.10
2018-06-24T02:54:04.031Z,8.37
2018-06-24T02:56:33.074Z,6.67
2018-06-24T02:59:01.554Z,6.70
2018-06-24T03:01:30.015Z,6.63
2018-06-24T03:03:58.443Z,6.77
2018-06-24T03:06:26.946Z,7.27
2018-06-24T03:08:55.452Z,5.77
2018-06-24T03:11:24.112Z,6.80
2018-06-24T03:13:52.606Z,7.73
2018-06-24T03:16:21.078Z,6.20
2018-06-24T03:18:49.655Z,6.40
2018-06-24T03:21:18.096Z,5.90
2018-06-24T03:23:46.578Z,5.00
2018-06-24T03:26:15.151Z,5.60
2018-06-24T03:28:43.634Z,6.63
2018-06-24T03:31:12.102Z,6.43
2018-06-24T03:33:40.553Z,6.83
2018-06-24T03:36:09.017Z,7.10
2018-06-24T03:38:37.181Z,6.47
2018-06-24T03:41:05.867Z,6.10
2018-06-24T03:43:34.335Z,6.40
2018-06-24T03:46:02.930Z,6.83
2018-06-24T03:48:31.445Z,6.80
2018-06-24T03:51:00.022Z,6.23
2018-06-24T03:53:28.497Z,6.10
2018-06-24T03:55:56.951Z,6.07
2018-06-24T03:58:25.559Z,5.73
2018-06-24T04:00:54.076Z,5.90
2018-06-24T04:03:22.523Z,5.80
2018-06-24T04:05:50.959Z,6.43
2018-06-24T04:08:19.423Z,5.83
2018-06-24T04:10:47.878Z,6.80
2018-06-24T04:13:16.447Z,5.70
2018-06-24T04:15:44.920Z,6.13
2018-06-24T04:18:13.438Z,7.33
2018-06-24T04:20:41.978Z,6.87
2018-06-24T04:23:10.446Z,7.20
2018-06-24T04:25:38.641Z,6.30
2018-06-24T04:28:07.450Z,5.60
2018-06-24T04:30:35.914Z,6.40
2018-06-24T04:33:04.708Z,6.33
2018-06-24T04:35:33.176Z,6.43
2018-06-24T04:38:01.662Z,6.30
2018-06-24T04:40:30.102Z,6.70
2018-06-24T04:42:58.634Z,7.40
2018-06-24T04:45:27.126Z,5.53
2018-06-24T04:47:55.566Z,6.80
2018-06-24T04:50:24.646Z,6.00
2018-06-24T04:52:53.166Z,5.83
2018-06-24T04:55:21.664Z,6.23
2018-06-24T04:57:50.120Z,6.83
2018-06-24T05:00:18.583Z,6.40
2018-06-24T05:02:47.054Z,5.67
2018-06-24T05:05:15.258Z,5.37
2018-06-24T05:07:43.846Z,4.87
2018-06-24T05:10:12.318Z,6.40
2018-06-24T05:12:40.812Z,5.33
2018-06-24T05:15:09.304Z,6.30
2018-06-24T05:17:37.812Z,5.50
2018-06-24T05:20:06.297Z,6.97
2018-06-24T05:22:34.863Z,5.20
2018-06-24T05:25:03.387Z,7.53
2018-06-24T05:27:32.073Z,6.00
2018-06-24T05:30:00.581Z,5.40
2018-06-24T05:32:29.130Z,5.20
2018-06-24T05:34:57.647Z,5.30
2018-06-24T05:37:25.913Z,5.07
2018-06-24T05:39:54.573Z,6.07
2018-06-24T05:42:23.069Z,4.73
2018-06-24T05:44:51.564Z,5.40
2018-06-24T05:47:20.743Z,5.73
2018-06-24T05:49:49.235Z,4.80
2018-06-24T05:52:17.703Z,5.07
2018-06-24T05:54:46.179Z,5.57
2018-06-24T05:57:14.671Z,5.20
2018-06-24T05:59:43.089Z,6.03
2018-06-24T06:02:11.591Z,5.67
2018-06-24T06:04:40.055Z,5.30
2018-06-24T06:07:08.580Z,5.47
2018-06-24T06:09:36.812Z,5.80
2018-06-24T06:12:05.300Z,5.23
2018-06-24T06:14:33.839Z,5.97
2018-06-24T06:17:02.400Z,6.20
2018-06-24T06:19:31.463Z,5.90
2018-06-24T06:21:59.945Z,6.67
2018-06-24T06:24:28.488Z,6.20
2018-06-24T06:26:56.911Z,5.37
2018-06-24T06:29:25.618Z,5.63
2018-06-24T06:31:54.293Z,4.97
2018-06-24T06:34:23.470Z,3.90
2018-06-24T06:36:52.019Z,4.27
2018-06-24T06:39:20.447Z,5.03
2018-06-24T06:41:49.204Z,3.70
2018-06-24T06:44:17.696Z,4.60
2018-06-24T06:46:46.174Z,4.80
2018-06-24T06:49:14.650Z,5.07
2018-06-24T06:51:43.099Z,5.23
2018-06-24T06:54:11.551Z,5.30
2018-06-24T06:56:39.608Z,5.40
2018-06-24T06:59:08.126Z,7.07
2018-06-24T07:01:36.575Z,5.70
2018-06-24T07:04:05.085Z,6.27
2018-06-24T07:06:33.593Z,4.70
2018-06-24T07:09:02.259Z,4.80
2018-06-24T07:11:30.713Z,5.00
2018-06-24T07:13:59.167Z,5.07
2018-06-24T07:16:27.643Z,4.77
2018-06-24T07:18:56.145Z,5.00
2018-06-24T07:21:24.671Z,5.20
2018-06-24T07:23:53.162Z,4.70
2018-06-24T07:26:21.650Z,6.53
2018-06-24T07:28:50.160Z,5.00
2018-06-24T07:31:18.658Z,5.37
2018-06-24T07:33:47.288Z,5.57
2018-06-24T07:36:15.654Z,4.90
2018-06-24T07:38:44.199Z,5.10
2018-06-24T07:41:12.400Z,4.47
2018-06-24T07:43:40.877Z,5.17
2018-06-24T07:46:09.339Z,4.60
2018-06-24T07:48:37.801Z,5.13
2018-06-24T07:51:07.076Z,4.60
2018-06-24T07:53:35.564Z,4.97
2018-06-24T07:56:04.411Z,4.20
2018-06-24T07:58:32.896Z,3.90
2018-06-24T08:01:01.346Z,3.70
2018-06-24T08:03:29.904Z,3.70
2018-06-24T08:05:58.402Z,3.90
2018-06-24T08:08:27.154Z,3.60
2018-06-24T08:10:55.764Z,3.50
2018-06-24T08:13:24.212Z,2.40
2018-06-24T08:15:52.430Z,2.77
2018-06-24T08:18:20.891Z,3.07
2018-06-24T08:20:49.375Z,3.23
2018-06-24T08:23:18.833Z,3.57
2018-06-24T08:25:47.381Z,2.43
2018-06-24T08:28:15.897Z,2.67
2018-06-24T08:30:44.379Z,2.50
2018-06-24T08:33:12.873Z,3.67
2018-06-24T08:35:41.385Z,2.47
2018-06-24T08:38:09.923Z,2.87
2018-06-24T08:40:38.681Z,2.97
2018-06-24T08:43:07.403Z,3.13
2018-06-24T08:45:35.883Z,2.60
2018-06-24T08:48:04.440Z,3.20
2018-06-24T08:50:32.920Z,3.40
2018-06-24T08:53:01.379Z,3.87
2018-06-24T08:55:29.913Z,3.40
2018-06-24T08:57:58.692Z,3.93
2018-06-24T09:00:26.902Z,3.13
2018-06-24T09:02:55.420Z,3.33
2018-06-24T09:05:23.991Z,2.50
2018-06-24T09:07:52.503Z,3.70
2018-06-24T09:10:21.080Z,4.57
2018-06-24T09:12:49.588Z,3.00
2018-06-24T09:15:18.152Z,3.70
2018-06-24T09:17:46.825Z,3.80
2018-06-24T09:20:15.313Z,4.10
2018-06-24T09:22:43.940Z,3.70
2018-06-24T09:25:12.340Z,3.90
2018-06-24T09:27:40.857Z,2.50
2018-06-24T09:30:09.640Z,3.13
2018-06-24T09:32:38.133Z,4.40
2018-06-24T09:35:06.616Z,3.13
2018-06-24T09:37:35.314Z,3.47
2018-06-24T09:40:03.880Z,3.37
2018-06-24T09:42:32.396Z,3.80
2018-06-24T09:45:00.932Z,3.70
2018-06-24T09:47:29.434Z,2.93
2018-06-24T09:49:57.654Z,3.23
2018-06-24T09:52:26.233Z,3.30
2018-06-24T09:54:54.746Z,5.93
2018-06-24T09:57:23.385Z,4.00
2018-06-24T09:59:51.952Z,3.37
2018-06-24T10:02:20.140Z,4.00
2018-06-24T10:04:48.727Z,5.30
2018-06-24T10:07:17.332Z,4.07
2018-06-24T10:09:46.503Z,3.53
2018-06-24T10:12:15.036Z,4.10
2018-06-24T10:14:44.120Z,4.20
2018-06-24T10:17:12.323Z,4.00
2018-06-24T10:19:40.850Z,3.60
2018-06-24T10:22:09.381Z,4.20
2018-06-24T10:24:38.022Z,2.83
2018-06-24T10:27:06.568Z,3.40
2018-06-24T10:29:35.193Z,3.80
2018-06-24T10:32:03.686Z,3.70
2018-06-24T10:34:32.209Z,3.00
2018-06-24T10:37:00.389Z,3.67
2018-06-24T10:39:28.683Z,2.50
2018-06-24T10:41:57.171Z,2.90
2018-06-24T10:44:25.723Z,3.07
2018-06-24T10:46:54.363Z,2.57
2018-06-24T10:49:22.923Z,2.67
2018-06-24T10:51:51.471Z,3.63
2018-06-24T10:54:19.997Z,3.77
2018-06-24T10:56:48.528Z,2.90
2018-06-24T10:59:17.078Z,2.97
2018-06-24T11:01:45.596Z,2.90
2018-06-24T11:04:14.182Z,2.90
2018-06-24T11:06:42.808Z,2.60
2018-06-24T11:09:11.810Z,3.27
2018-06-24T11:11:40.437Z,2.43
2018-06-24T11:14:08.950Z,2.63
2018-06-24T11:16:37.534Z,2.70
2018-06-24T11:19:06.157Z,2.70
2018-06-24T11:21:34.693Z,2.97
2018-06-24T11:24:03.364Z,2.97
2018-06-24T11:26:32.066Z,2.50
2018-06-24T11:29:01.059Z,3.10
2018-06-24T11:31:29.913Z,2.93
2018-06-24T11:33:58.441Z,2.30
2018-06-24T11:36:27.071Z,2.90
2018-06-24T11:38:55.566Z,2.20
2018-06-24T11:41:24.313Z,2.90
2018-06-24T11:43:53.031Z,2.40
2018-06-24T11:46:21.479Z,3.00
2018-06-24T11:48:49.993Z,2.90
2018-06-24T11:51:18.604Z,2.70
2018-06-24T11:53:47.686Z,2.33
2018-06-24T11:56:16.220Z,2.47
2018-06-24T11:58:44.520Z,2.33
2018-06-24T12:01:12.986Z,2.20
2018-06-24T12:03:41.596Z,2.60
2018-06-24T12:06:10.292Z,2.87
2018-06-24T12:08:38.950Z,2.70
2018-06-24T12:11:07.356Z,3.00
2018-06-24T12:13:35.926Z,3.50
2018-06-24T12:16:04.166Z,2.60
2018-06-24T12:18:32.745Z,2.70
2018-06-24T12:21:01.330Z,2.27
2018-06-24T12:23:29.890Z,2.50
2018-06-24T12:25:58.556Z,2.77
2018-06-24T12:28:27.261Z,2.60
2018-06-24T12:30:55.816Z,2.07
2018-06-24T12:33:24.336Z,2.63
2018-06-24T12:35:52.924Z,3.30
2018-06-24T12:38:21.458Z,2.67
2018-06-24T12:40:50.076Z,3.63
2018-06-24T12:43:18.572Z,3.13
2018-06-24T12:45:47.066Z,1.90
2018-06-24T12:48:15.348Z,2.37
2018-06-24T12:50:43.904Z,2.50
2018-06-24T12:53:12.428Z,3.03
2018-06-24T12:55:41.010Z,2.17
2018-06-24T12:58:09.333Z,2.43
2018-06-24T13:00:38.445Z,2.23
2018-06-24T13:03:06.351Z,2.23
2018-06-24T13:05:35.170Z,2.40
2018-06-24T13:08:03.636Z,2.60
2018-06-24T13:10:31.891Z,2.60
2018-06-24T13:13:00.435Z,2.40
2018-06-24T13:15:29.109Z,2.17
2018-06-24T13:17:57.660Z,3.03
2018-06-24T13:20:26.156Z,2.50
2018-06-24T13:22:54.877Z,2.80
2018-06-24T13:25:23.406Z,2.43
2018-06-24T13:27:51.984Z,2.03
2018-06-24T13:30:20.484Z,2.27
2018-06-24T13:32:49.026Z,2.57
2018-06-24T13:35:17.634Z,2.23
2018-06-24T13:37:46.364Z,2.70
2018-06-24T13:40:15.048Z,2.63
2018-06-24T13:42:43.664Z,2.47
2018-06-24T13:45:12.294Z,2.87
2018-06-24T13:47:40.964Z,2.80
2018-06-24T13:50:09.576Z,3.10
2018-06-24T13:52:38.546Z,2.93
2018-06-24T13:55:07.478Z,3.10
2018-06-24T13:57:36.256Z,2.50
2018-06-24T14:00:05.298Z,2.30
2018-06-24T14:02:34.032Z,2.77
2018-06-24T14:05:02.612Z,2.83
2018-06-24T14:07:31.379Z,2.80
2018-06-24T14:09:59.957Z,2.80
2018-06-24T14:12:28.173Z,2.40
2018-06-24T14:14:56.730Z,2.90
2018-06-24T14:17:25.306Z,2.67
2018-06-24T14:19:54.863Z,2.87
2018-06-24T14:22:23.607Z,2.83
2018-06-24T14:24:52.319Z,2.50
2018-06-24T14:27:21.027Z,3.10
2018-06-24T14:29:49.921Z,2.97
2018-06-24T14:32:18.609Z,3.27
2018-06-24T14:34:47.288Z,3.43
2018-06-24T14:37:15.476Z,1.80
2018-06-24T14:39:44.066Z,2.50
2018-06-24T14:42:12.585Z,2.37
2018-06-24T14:44:41.194Z,2.20
2018-06-24T14:47:09.839Z,2.60
2018-06-24T14:49:38.555Z,2.23
2018-06-24T14:52:07.126Z,2.37
2018-06-24T14:54:35.688Z,2.53
2018-06-24T14:57:04.480Z,2.50
2018-06-24T14:59:33.646Z,2.80
2018-06-24T15:02:02.390Z,3.00
2018-06-24T15:04:30.944Z,2.73
2018-06-24T15:06:59.452Z,2.83
2018-06-24T15:09:27.956Z,2.60
2018-06-24T15:11:56.481Z,2.93
2018-06-24T15:14:25.162Z,2.33
2018-06-24T15:16:53.930Z,2.30
2018-06-24T15:19:22.490Z,2.63
2018-06-24T15:21:51.437Z,3.13
2018-06-24T15:24:20.057Z,2.63
2018-06-24T15:26:48.591Z,2.70
2018-06-24T15:29:17.143Z,2.67
2018-06-24T15:31:46.155Z,2.87
2018-06-24T15:34:14.756Z,2.40
2018-06-24T15:36:43.392Z,2.50
2018-06-24T15:39:12.665Z,2.33
2018-06-24T15:41:42.229Z,2.77
2018-06-24T15:44:11.771Z,2.60
2018-06-24T15:46:40.308Z,9.80
2018-06-24T15:49:08.553Z,21.20
2018-06-24T15:51:37.125Z,5.40
2018-06-24T15:54:05.801Z,3.23
2018-06-24T15:56:34.416Z,3.57
2018-06-24T15:59:02.939Z,3.07
2018-06-24T16:01:31.552Z,3.33
2018-06-24T16:04:00.254Z,2.87
2018-06-24T16:06:28.799Z,2.30
2018-06-24T16:08:57.463Z,2.23
2018-06-24T16:11:26.249Z,2.67
2018-06-24T16:13:54.925Z,3.03
2018-06-24T16:16:23.615Z,3.03
2018-06-24T16:18:52.159Z,3.23
2018-06-24T16:21:20.926Z,3.10
2018-06-24T16:23:49.157Z,2.93
2018-06-24T16:26:17.855Z,2.90
2018-06-24T16:28:46.338Z,2.67
2018-06-24T16:31:14.833Z,3.37
2018-06-24T16:33:43.378Z,2.20
2018-06-24T16:38:50.787Z,2.63
2018-06-24T16:41:19.374Z,2.70
2018-06-24T16:43:47.577Z,2.67
2018-06-24T16:46:16.185Z,2.80
2018-06-24T16:48:44.693Z,3.03
2018-06-24T16:51:13.246Z,2.50
2018-06-24T16:53:41.784Z,2.40
2018-06-24T16:56:10.362Z,2.13
2018-06-24T16:58:40.268Z,2.47
2018-06-24T17:01:08.281Z,3.17
2018-06-24T17:03:36.788Z,2.37
2018-06-24T17:06:05.034Z,2.70
2018-06-24T17:08:33.553Z,2.60
2018-06-24T17:11:02.379Z,2.80
2018-06-24T17:13:30.919Z,3.27
2018-06-24T17:15:59.227Z,2.23
2018-06-24T17:18:27.835Z,2.47
2018-06-24T17:20:56.420Z,2.20
2018-06-24T17:23:24.993Z,4.77
2018-06-24T17:25:54.547Z,4.70
2018-06-24T17:28:23.148Z,2.77
2018-06-24T17:30:51.917Z,2.17
2018-06-24T17:33:20.459Z,2.50
2018-06-24T17:35:49.469Z,3.03
2018-06-24T17:38:18.216Z,2.50
2018-06-24T17:40:46.481Z,2.43
2018-06-24T17:43:16.400Z,3.10
2018-06-24T17:45:45.382Z,2.07
2018-06-24T17:48:14.949Z,1.67
2018-06-24T17:50:44.050Z,2.27
2018-06-24T17:53:13.115Z,2.67
2018-06-24T17:55:42.820Z,2.33
2018-06-24T17:58:11.569Z,1.80
2018-06-24T18:00:40.291Z,2.10
2018-06-24T18:03:11.194Z,1.63
2018-06-24T18:05:39.870Z,1.90
2018-06-24T18:08:08.296Z,2.10
2018-06-24T18:10:38.165Z,2.23
2018-06-24T18:13:06.898Z,1.70
2018-06-24T18:15:36.124Z,2.43
2018-06-24T18:18:05.713Z,1.60
2018-06-24T18:20:35.247Z,2.03
2018-06-24T18:23:04.514Z,2.10
2018-06-24T18:25:34.767Z,2.03
2018-06-24T18:28:04.169Z,1.90
2018-06-24T18:30:33.561Z,1.60
2018-06-24T18:33:02.935Z,2.10
2018-06-24T18:35:32.572Z,2.03
2018-06-24T18:38:02.130Z,1.50
2018-06-24T18:40:31.101Z,1.57
2018-06-24T18:43:01.330Z,1.33
2018-06-24T18:45:30.752Z,2.20
2018-06-24T18:48:00.268Z,1.50
2018-06-24T18:50:30.674Z,1.80
2018-06-24T18:53:00.601Z,1.60
2018-06-24T18:55:30.238Z,1.90
2018-06-24T18:58:00.232Z,1.93
2018-06-24T19:00:29.129Z,1.70
2018-06-24T19:02:58.761Z,1.67
2018-06-24T19:05:28.077Z,1.37
2018-06-24T19:07:58.133Z,2.37
2018-06-24T19:10:27.979Z,1.97
2018-06-24T19:12:58.221Z,1.93
2018-06-24T19:15:28.722Z,2.17
2018-06-24T19:17:57.716Z,2.30
2018-06-24T19:20:27.268Z,2.00
2018-06-24T19:22:56.737Z,2.40
2018-06-24T19:25:25.955Z,2.20
2018-06-24T19:27:56.710Z,2.20
2018-06-24T19:30:27.695Z,1.30
2018-06-24T19:32:57.906Z,2.30
2018-06-24T19:35:27.362Z,2.27
2018-06-24T19:37:56.965Z,1.90
2018-06-24T19:40:26.869Z,2.13
2018-06-24T19:42:56.237Z,2.00
2018-06-24T19:45:25.691Z,2.13
2018-06-24T19:47:55.215Z,2.03
2018-06-24T19:50:24.711Z,2.20
2018-06-24T19:52:53.698Z,2.00
2018-06-24T19:55:22.642Z,2.60
2018-06-24T19:57:51.549Z,2.37
2018-06-24T20:00:20.419Z,2.70
2018-06-24T20:02:49.466Z,2.00
2018-06-24T20:05:18.889Z,2.30
2018-06-24T20:07:47.824Z,2.27
2018-06-24T20:10:17.094Z,2.33
2018-06-24T20:12:46.852Z,3.10
2018-06-24T20:15:15.746Z,2.30
2018-06-24T20:17:44.864Z,2.27
2018-06-24T20:20:14.747Z,2.20
2018-06-24T20:22:43.715Z,1.90
2018-06-24T20:25:12.562Z,1.90
2018-06-24T20:27:42.491Z,2.17
2018-06-24T20:30:11.382Z,1.60
2018-06-24T20:32:39.860Z,2.00
2018-06-24T20:35:08.283Z,1.50
2018-06-24T20:37:37.182Z,1.83
2018-06-24T20:40:05.847Z,1.47
2018-06-24T20:42:34.720Z,2.07
2018-06-24T20:45:02.959Z,2.57
2018-06-24T20:47:33.064Z,3.73
2018-06-24T20:50:01.751Z,2.80
2018-06-24T20:52:30.331Z,2.73
2018-06-24T20:54:58.981Z,2.80
2018-06-24T20:57:27.667Z,2.23
2018-06-24T20:59:56.163Z,2.00
2018-06-24T21:02:24.766Z,2.10
2018-06-24T21:04:52.876Z,2.40
2018-06-24T21:07:21.533Z,2.43
2018-06-24T21:09:50.076Z,2.50
2018-06-24T21:12:19.378Z,2.37
2018-06-24T21:14:48.086Z,2.20
2018-06-24T21:17:16.310Z,2.60
2018-06-24T21:19:45.172Z,2.60
2018-06-24T21:22:13.427Z,2.73
2018-06-24T21:24:42.039Z,2.20
2018-06-24T21:27:11.889Z,3.40
2018-06-24T21:29:41.126Z,2.53
2018-06-24T21:32:10.044Z,2.60
2018-06-24T21:34:38.807Z,3.00
2018-06-24T21:37:08.143Z,2.83
2018-06-24T21:39:36.650Z,2.53
2018-06-24T21:42:05.233Z,3.27
2018-06-24T21:44:33.416Z,3.00
2018-06-24T21:47:01.918Z,2.63
2018-06-24T21:49:30.184Z,2.67
2018-06-24T21:51:58.649Z,2.83
2018-06-24T21:54:27.219Z,2.70
2018-06-24T21:56:55.705Z,3.23
2018-06-24T21:59:24.421Z,2.90
2018-06-24T22:01:52.906Z,3.87
2018-06-24T22:04:21.477Z,3.40
2018-06-24T22:06:49.945Z,4.20
2018-06-24T22:09:18.417Z,3.93
2018-06-24T22:11:46.999Z,4.00
2018-06-24T22:14:15.565Z,3.90
2018-06-24T22:16:44.135Z,4.40
2018-06-24T22:19:12.654Z,4.43
2018-06-24T22:21:41.236Z,3.97
2018-06-24T22:24:09.762Z,4.80
2018-06-24T22:26:38.272Z,3.50
2018-06-24T22:29:06.884Z,3.90
2018-06-24T22:31:35.598Z,4.40
2018-06-24T22:34:04.103Z,4.47
2018-06-24T22:36:32.662Z,4.17
2018-06-24T22:39:01.250Z,3.80
2018-06-24T22:41:29.784Z,4.07
2018-06-24T22:43:58.518Z,5.07
2018-06-24T22:46:26.993Z,3.97
2018-06-24T22:48:55.576Z,4.73
2018-06-24T22:51:24.052Z,4.07
2018-06-24T22:53:52.550Z,3.70
2018-06-24T22:56:21.174Z,4.60
2018-06-24T22:59:01.196Z,3.80
2018-06-24T23:01:29.912Z,4.63
2018-06-24T23:03:58.355Z,3.57
2018-06-24T23:06:27.148Z,4.30
2018-06-24T23:08:55.984Z,3.60
2018-06-24T23:11:24.570Z,3.77
2018-06-24T23:13:53.058Z,3.90
2018-06-24T23:16:21.614Z,3.93
2018-06-24T23:18:50.073Z,3.93
2018-06-24T23:21:18.507Z,3.90
2018-06-24T23:23:47.037Z,4.17
2018-06-24T23:26:15.451Z,4.47
2018-06-24T23:28:43.894Z,3.80
2018-06-24T23:31:12.389Z,4.13
2018-06-24T23:33:40.854Z,3.83
2018-06-24T23:36:09.361Z,4.00
2018-06-24T23:38:37.848Z,2.83
2018-06-24T23:41:06.485Z,3.50
2018-06-24T23:43:34.969Z,3.20
2018-06-24T23:46:03.767Z,4.40
2018-06-24T23:48:32.335Z,4.20
2018-06-24T23:51:00.771Z,3.47
2018-06-24T23:53:29.237Z,3.20
2018-06-24T23:55:57.717Z,3.50
2018-06-24T23:58:26.257Z,4.60
